createdAt,value
2019-04-14T00:01:53.026Z,99.90
2019-04-14T00:04:29.277Z,99.90
2019-04-14T00:07:03.695Z,99.90
2019-04-14T00:09:38.038Z,99.90
2019-04-14T00:12:11.956Z,99.90
2019-04-14T00:14:44.604Z,99.90
2019-04-14T00:17:15.787Z,99.90
2019-04-14T00:19:50.197Z,99.90
2019-04-14T00:22:22.747Z,99.90
2019-04-14T00:24:53.811Z,99.90
2019-04-14T00:27:25.890Z,99.90
2019-04-14T00:29:57.136Z,99.90
2019-04-14T00:32:29.260Z,99.90
2019-04-14T00:35:16.749Z,99.90
2019-04-14T00:38:06.322Z,99.90
2019-04-14T00:40:43.252Z,99.90
2019-04-14T00:43:33.495Z,99.90
2019-04-14T00:46:15.385Z,99.90
2019-04-14T00:48:47.659Z,99.90
2019-04-14T00:51:19.946Z,99.90
2019-04-14T00:53:51.364Z,99.90
2019-04-14T00:56:23.460Z,99.90
2019-04-14T00:58:56.106Z,99.90
2019-04-14T01:01:28.618Z,99.90
2019-04-14T01:03:59.742Z,99.90
2019-04-14T01:06:31.461Z,99.90
2019-04-14T01:09:04.276Z,99.90
2019-04-14T01:11:36.284Z,99.90
2019-04-14T01:14:08.012Z,99.90
2019-04-14T01:16:39.134Z,99.90
2019-04-14T01:19:11.216Z,99.90
2019-04-14T01:21:43.654Z,99.90
2019-04-14T01:24:16.488Z,99.90
2019-04-14T01:26:48.668Z,99.90
2019-04-14T01:29:20.854Z,99.90
2019-04-14T01:31:52.039Z,99.90
2019-04-14T01:34:23.870Z,99.90
2019-04-14T01:36:56.061Z,99.90
2019-04-14T01:39:28.537Z,99.90
2019-04-14T01:42:00.720Z,99.90
2019-04-14T01:44:33.017Z,99.90
2019-04-14T01:47:05.315Z,99.90
2019-04-14T01:49:37.552Z,99.90
2019-04-14T01:52:43.659Z,99.90
2019-04-14T01:55:22.282Z,99.90
2019-04-14T01:58:12.133Z,99.90
2019-04-14T02:00:51.168Z,99.90
2019-04-14T02:03:23.850Z,99.90
2019-04-14T02:05:55.999Z,99.90
2019-04-14T02:08:28.399Z,99.90
2019-04-14T02:11:00.792Z,99.90
2019-04-14T02:13:33.208Z,99.90
2019-04-14T02:16:15.115Z,99.90
2019-04-14T02:18:38.586Z,99.90
2019-04-14T02:21:10.719Z,99.90
2019-04-14T02:23:43.338Z,99.90
2019-04-14T02:26:15.506Z,99.90
2019-04-14T02:28:46.763Z,99.90
2019-04-14T02:31:38.843Z,99.90
2019-04-14T02:34:25.605Z,99.90
2019-04-14T02:39:29.418Z,99.90
2019-04-14T02:42:17.402Z,99.90
2019-04-14T02:44:32.472Z,99.90
2019-04-14T02:47:03.466Z,99.90
2019-04-14T02:49:36.331Z,99.90
2019-04-14T02:52:09.972Z,99.90
2019-04-14T02:54:51.912Z,99.90
2019-04-14T02:57:16.928Z,99.90
2019-04-14T02:59:51.529Z,99.90
2019-04-14T03:04:50.843Z,99.90
2019-04-14T03:10:10.545Z,99.90
2019-04-14T03:12:31.628Z,99.90
2019-04-14T03:15:07.237Z,99.90
2019-04-14T03:18:00.493Z,99.90
2019-04-14T03:20:42.886Z,99.90
2019-04-14T03:23:34.760Z,99.90
2019-04-14T03:26:05.082Z,99.90
2019-04-14T03:28:46.037Z,99.90
2019-04-14T03:31:51.938Z,99.90
2019-04-14T03:37:21.195Z,99.90
2019-04-14T03:39:09.690Z,99.90
2019-04-14T03:41:37.248Z,99.90
2019-04-14T03:44:11.895Z,99.90
2019-04-14T03:46:45.080Z,99.90
2019-04-14T03:49:17.782Z,99.90
2019-04-14T03:51:57.372Z,99.90
2019-04-14T03:54:10.967Z,99.90
2019-04-14T03:56:48.752Z,99.90
2019-04-14T03:59:22.017Z,99.90
2019-04-14T04:01:54.275Z,99.90
2019-04-14T04:04:25.557Z,99.90
2019-04-14T04:06:57.474Z,99.90
2019-04-14T04:09:34.245Z,99.90
2019-04-14T04:12:05.637Z,99.90
2019-04-14T04:14:37.789Z,99.90
2019-04-14T04:17:31.805Z,99.90
2019-04-14T04:20:20.354Z,99.90
2019-04-14T04:23:16.676Z,99.90
2019-04-14T04:26:19.167Z,99.90
2019-04-14T04:28:58.361Z,99.90
2019-04-14T04:31:50.440Z,99.90
2019-04-14T04:34:40.568Z,99.90
2019-04-14T04:37:34.418Z,99.90
2019-04-14T04:40:27.414Z,99.90
2019-04-14T04:42:59.075Z,99.90
2019-04-14T04:45:30.270Z,99.90
2019-04-14T04:48:02.422Z,99.90
2019-04-14T04:50:34.629Z,99.90
2019-04-14T04:53:06.928Z,99.90
2019-04-14T04:55:39.504Z,99.90
2019-04-14T04:58:12.080Z,99.90
2019-04-14T05:00:43.894Z,99.90
2019-04-14T05:03:16.833Z,99.90
2019-04-14T05:06:43.724Z,99.90
2019-04-14T05:09:25.318Z,99.90
2019-04-14T05:12:17.653Z,99.90
2019-04-14T05:14:54.478Z,99.90
2019-04-14T05:17:26.279Z,99.90
2019-04-14T05:19:58.302Z,99.90
2019-04-14T05:22:31.268Z,99.90
2019-04-14T05:25:03.524Z,99.90
2019-04-14T05:27:36.544Z,99.90
2019-04-14T05:30:08.990Z,99.90
2019-04-14T05:32:41.173Z,99.90
2019-04-14T05:35:12.479Z,99.90
2019-04-14T05:37:44.383Z,99.90
2019-04-14T05:40:16.671Z,99.90
2019-04-14T05:42:48.104Z,99.90
2019-04-14T05:45:19.864Z,99.90
2019-04-14T05:47:52.158Z,99.90
2019-04-14T05:50:23.363Z,99.90
2019-04-14T05:52:55.660Z,99.90
2019-04-14T05:55:28.342Z,99.90
2019-04-14T05:57:59.976Z,99.90
2019-04-14T06:00:31.990Z,99.90
2019-04-14T06:03:03.820Z,99.90
2019-04-14T06:05:36.153Z,99.90
2019-04-14T06:08:07.670Z,99.90
2019-04-14T06:10:38.808Z,99.90
2019-04-14T06:13:11.767Z,99.90
2019-04-14T06:15:42.970Z,99.90
2019-04-14T06:18:14.012Z,99.90
2019-04-14T06:20:45.140Z,99.90
2019-04-14T06:23:16.253Z,99.90
2019-04-14T06:25:47.714Z,99.90
2019-04-14T06:28:18.751Z,99.90
2019-04-14T06:31:18.392Z,99.90
2019-04-14T06:33:54.386Z,99.90
2019-04-14T06:36:47.526Z,99.90
2019-04-14T06:39:36.872Z,99.90
2019-04-14T06:42:07.983Z,99.90
2019-04-14T06:44:39.474Z,99.90
2019-04-14T06:47:11.008Z,99.90
2019-04-14T06:49:48.975Z,99.90
2019-04-14T06:52:14.803Z,99.90
2019-04-14T06:54:46.298Z,99.90
2019-04-14T06:57:17.333Z,99.90
2019-04-14T06:59:48.451Z,99.90
2019-04-14T07:02:19.915Z,99.90
2019-04-14T07:04:51.674Z,99.90
2019-04-14T07:07:22.721Z,99.90
2019-04-14T07:09:53.861Z,99.90
2019-04-14T07:12:25.585Z,99.90
2019-04-14T07:14:57.036Z,99.90
2019-04-14T07:17:28.409Z,99.90
2019-04-14T07:20:02.342Z,99.90
2019-04-14T07:22:34.579Z,99.90
2019-04-14T07:25:05.679Z,99.90
2019-04-14T07:27:37.081Z,99.90
2019-04-14T07:30:33.074Z,99.90
2019-04-14T07:33:21.823Z,99.90
2019-04-14T07:36:08.131Z,99.90
2019-04-14T07:38:51.999Z,99.90
2019-04-14T07:41:39.321Z,99.90
2019-04-14T07:44:35.444Z,99.90
2019-04-14T07:47:16.865Z,99.90
2019-04-14T07:50:15.614Z,99.90
2019-04-14T07:53:12.355Z,99.90
2019-04-14T07:56:00.700Z,99.90
2019-04-14T07:58:42.935Z,99.90
2019-04-14T08:01:17.023Z,99.90
2019-04-14T08:04:01.640Z,99.90
2019-04-14T08:06:44.946Z,99.90
2019-04-14T08:09:16.426Z,99.90
2019-04-14T08:11:47.938Z,99.90
2019-04-14T08:14:19.082Z,99.90
2019-04-14T08:16:50.142Z,99.90
2019-04-14T08:19:22.109Z,99.90
2019-04-14T08:21:53.160Z,99.90
2019-04-14T08:24:25.715Z,99.90
2019-04-14T08:26:56.784Z,99.90
2019-04-14T08:29:28.170Z,99.90
2019-04-14T08:31:59.181Z,99.90
2019-04-14T08:34:30.470Z,99.90
2019-04-14T08:37:01.551Z,99.90
2019-04-14T08:39:32.577Z,99.90
2019-04-14T08:42:19.190Z,99.90
2019-04-14T08:44:52.297Z,99.90
2019-04-14T08:47:41.364Z,99.90
2019-04-14T08:50:39.641Z,99.90
2019-04-14T08:53:26.082Z,99.90
2019-04-14T08:56:17.695Z,99.90
2019-04-14T08:58:57.886Z,99.90
2019-04-14T09:01:37.851Z,99.90
2019-04-14T09:04:17.809Z,99.90
2019-04-14T09:07:06.635Z,99.90
2019-04-14T09:09:43.277Z,99.90
2019-04-14T09:12:16.941Z,99.90
2019-04-14T09:14:56.828Z,99.90
2019-04-14T09:17:20.798Z,99.90
2019-04-14T09:19:51.854Z,99.90
2019-04-14T09:22:23.333Z,99.90
2019-04-14T09:24:54.497Z,99.90
2019-04-14T09:27:25.610Z,99.90
2019-04-14T09:29:56.693Z,99.90
2019-04-14T09:32:29.638Z,99.90
2019-04-14T09:35:00.700Z,99.90
2019-04-14T09:37:31.797Z,99.90
2019-04-14T09:40:04.399Z,99.90
2019-04-14T09:42:35.469Z,99.90
2019-04-14T09:45:07.396Z,99.90
2019-04-14T09:47:38.784Z,99.90
2019-04-14T09:50:09.734Z,99.90
2019-04-14T09:52:40.745Z,99.90
2019-04-14T09:55:12.170Z,99.90
2019-04-14T09:57:43.231Z,99.90
2019-04-14T10:00:15.833Z,99.90
2019-04-14T10:02:46.987Z,99.90
2019-04-14T10:05:18.069Z,99.90
2019-04-14T10:07:49.460Z,99.90
2019-04-14T10:10:20.522Z,99.90
2019-04-14T10:12:51.607Z,99.90
2019-04-14T10:15:22.708Z,99.90
2019-04-14T10:17:53.773Z,99.90
2019-04-14T10:20:24.915Z,99.90
2019-04-14T10:22:55.977Z,99.90
2019-04-14T10:25:27.132Z,99.90
2019-04-14T10:27:58.618Z,99.90
2019-04-14T10:30:29.592Z,99.90
2019-04-14T10:33:00.718Z,99.90
2019-04-14T10:35:32.212Z,99.90
2019-04-14T10:38:03.343Z,99.90
2019-04-14T10:40:34.874Z,99.90
2019-04-14T10:43:05.965Z,99.90
2019-04-14T10:45:37.046Z,99.90
2019-04-14T10:48:08.474Z,99.90
2019-04-14T10:50:39.836Z,99.90
2019-04-14T10:53:11.284Z,99.90
2019-04-14T10:55:42.387Z,99.90
2019-04-14T10:58:13.878Z,99.90
2019-04-14T11:00:45.150Z,99.90
2019-04-14T11:03:16.280Z,99.90
2019-04-14T11:05:59.434Z,99.90
2019-04-14T11:08:30.435Z,99.90
2019-04-14T11:11:01.494Z,99.90
2019-04-14T11:13:33.065Z,99.90
2019-04-14T11:16:04.921Z,99.90
2019-04-14T11:18:36.028Z,99.90
2019-04-14T11:21:08.204Z,99.90
2019-04-14T11:23:39.281Z,99.90
2019-04-14T11:26:10.622Z,99.90
2019-04-14T11:28:41.958Z,99.90
2019-04-14T11:31:14.812Z,99.90
2019-04-14T11:34:01.605Z,99.90
2019-04-14T11:36:54.686Z,99.90
2019-04-14T11:39:26.103Z,99.90
2019-04-14T11:41:57.230Z,99.90
2019-04-14T11:44:28.640Z,99.90
2019-04-14T11:46:59.949Z,99.90
2019-04-14T11:49:31.049Z,99.90
2019-04-14T11:52:02.121Z,99.90
2019-04-14T11:54:33.185Z,99.90
2019-04-14T11:57:04.329Z,99.90
2019-04-14T11:59:52.663Z,99.90
2019-04-14T12:02:45.714Z,99.90
2019-04-14T12:05:25.352Z,99.90
2019-04-14T12:08:11.058Z,99.90
2019-04-14T12:10:42.447Z,99.90
2019-04-14T12:13:13.562Z,99.90
2019-04-14T12:15:44.711Z,99.90
2019-04-14T12:18:15.850Z,99.90
2019-04-14T12:20:47.008Z,99.90
2019-04-14T12:23:18.541Z,99.90
2019-04-14T12:25:50.319Z,99.90
2019-04-14T12:28:21.927Z,99.90
2019-04-14T12:30:53.310Z,99.90
2019-04-14T12:33:24.663Z,99.90
2019-04-14T12:35:56.028Z,99.90
2019-04-14T12:38:27.153Z,99.90
2019-04-14T12:41:00.428Z,99.90
2019-04-14T12:43:38.413Z,99.90
2019-04-14T12:46:28.844Z,99.90
2019-04-14T12:49:05.057Z,99.90
2019-04-14T12:51:39.028Z,99.90
2019-04-14T12:54:10.176Z,99.90
2019-04-14T12:56:43.431Z,99.90
2019-04-14T12:59:19.209Z,99.90
2019-04-14T13:02:10.887Z,99.90
2019-04-14T13:04:42.256Z,99.90
2019-04-14T13:07:13.302Z,99.90
2019-04-14T13:09:45.062Z,99.90
2019-04-14T13:12:16.134Z,99.90
2019-04-14T13:14:47.252Z,99.90
2019-04-14T13:17:18.296Z,99.90
2019-04-14T13:19:49.686Z,99.90
2019-04-14T13:22:32.947Z,99.90
2019-04-14T13:24:54.254Z,99.90
2019-04-14T13:27:25.413Z,99.90
2019-04-14T13:29:56.523Z,99.90
2019-04-14T13:32:35.730Z,99.90
2019-04-14T13:35:00.281Z,99.90
2019-04-14T13:37:31.680Z,99.90
2019-04-14T13:40:02.680Z,99.90
2019-04-14T13:42:33.900Z,99.90
2019-04-14T13:45:05.424Z,99.90
2019-04-14T13:47:36.488Z,99.90
2019-04-14T13:50:08.162Z,99.90
2019-04-14T13:52:46.644Z,99.90
2019-04-14T13:55:13.612Z,99.90
2019-04-14T13:57:44.754Z,99.90
2019-04-14T14:00:17.937Z,99.90
2019-04-14T14:02:48.949Z,99.30
2019-04-14T14:05:20.689Z,97.40
2019-04-14T14:07:51.809Z,97.60
2019-04-14T14:10:22.865Z,97.90
2019-04-14T14:12:58.447Z,97.30
2019-04-14T14:15:48.547Z,97.20
2019-04-14T14:18:30.389Z,97.00
2019-04-14T14:21:23.435Z,97.20
2019-04-14T14:24:19.694Z,96.40
2019-04-14T14:26:51.529Z,96.00
2019-04-14T14:29:22.962Z,96.10
2019-04-14T14:31:54.665Z,96.30
2019-04-14T14:34:25.795Z,96.30
2019-04-14T14:36:56.771Z,96.40
2019-04-14T14:39:28.562Z,95.90
2019-04-14T14:41:59.674Z,95.80
2019-04-14T14:44:38.339Z,95.80
2019-04-14T14:47:18.018Z,95.10
2019-04-14T14:50:08.445Z,95.20
2019-04-14T14:52:40.933Z,95.20
2019-04-14T14:55:12.477Z,95.70
2019-04-14T14:57:43.631Z,96.00
2019-04-14T15:00:26.931Z,96.20
2019-04-14T15:02:57.999Z,95.20
2019-04-14T15:05:29.485Z,95.10
2019-04-14T15:08:00.902Z,94.60
2019-04-14T15:10:31.942Z,94.90
2019-04-14T15:13:03.360Z,95.10
2019-04-14T15:15:34.839Z,96.60
2019-04-14T15:18:06.437Z,96.00
2019-04-14T15:20:37.888Z,94.80
2019-04-14T15:23:09.026Z,94.00
2019-04-14T15:25:40.483Z,93.30
2019-04-14T15:28:11.543Z,92.80
2019-04-14T15:30:42.686Z,93.70
2019-04-14T15:33:13.804Z,94.30
2019-04-14T15:35:44.942Z,94.20
2019-04-14T15:38:16.437Z,94.50
2019-04-14T15:40:47.591Z,94.30
2019-04-14T15:43:18.978Z,93.70
2019-04-14T15:45:50.483Z,92.20
2019-04-14T15:48:21.545Z,92.60
2019-04-14T15:50:52.689Z,92.30
2019-04-14T15:53:23.760Z,91.60
2019-04-14T15:55:54.916Z,91.50
2019-04-14T15:58:47.896Z,91.10
2019-04-14T16:01:34.709Z,91.60
2019-04-14T16:04:11.938Z,91.80
2019-04-14T16:07:05.925Z,91.10
2019-04-14T16:10:02.093Z,91.00
2019-04-14T16:12:47.990Z,91.30
2019-04-14T16:15:57.357Z,91.10
2019-04-14T16:18:39.924Z,90.40
2019-04-14T16:21:11.051Z,90.30
2019-04-14T16:23:50.422Z,90.20
2019-04-14T16:26:34.535Z,90.20
2019-04-14T16:29:20.983Z,90.10
2019-04-14T16:32:07.181Z,89.70
2019-04-14T16:34:43.487Z,90.00
2019-04-14T16:37:14.665Z,89.20
2019-04-14T16:39:46.208Z,88.10
2019-04-14T16:42:17.699Z,87.90
2019-04-14T16:44:48.755Z,88.70
2019-04-14T16:47:20.286Z,87.80
2019-04-14T16:49:51.385Z,89.20
2019-04-14T16:52:47.253Z,88.60
2019-04-14T16:55:43.491Z,88.70
2019-04-14T16:58:26.583Z,89.70
2019-04-14T17:01:03.763Z,90.20
2019-04-14T17:03:35.204Z,90.30
2019-04-14T17:06:06.706Z,90.70
2019-04-14T17:08:37.782Z,91.00
2019-04-14T17:11:08.887Z,90.40
2019-04-14T17:13:42.684Z,90.60
2019-04-14T17:16:24.006Z,91.20
2019-04-14T17:19:17.208Z,91.50
2019-04-14T17:22:00.015Z,92.10
2019-04-14T17:25:01.121Z,91.80
2019-04-14T17:27:55.814Z,91.80
2019-04-14T17:30:31.481Z,91.00
2019-04-14T17:33:25.368Z,91.00
2019-04-14T17:36:05.642Z,91.10
2019-04-14T17:39:07.260Z,91.50
2019-04-14T17:42:05.236Z,92.00
2019-04-14T17:44:43.674Z,92.00
2019-04-14T17:47:34.627Z,91.80
2019-04-14T17:50:40.524Z,92.10
2019-04-14T17:53:19.956Z,91.80
2019-04-14T17:55:59.708Z,92.30
2019-04-14T17:58:39.062Z,92.50
2019-04-14T18:01:38.178Z,92.90
2019-04-14T18:04:26.107Z,92.70
2019-04-14T18:07:04.711Z,93.00
2019-04-14T18:09:48.433Z,93.50
2019-04-14T18:12:29.573Z,93.50
2019-04-14T18:15:11.719Z,93.90
2019-04-14T18:18:09.170Z,94.60
2019-04-14T18:20:43.174Z,95.00
2019-04-14T18:23:14.222Z,95.10
2019-04-14T18:25:46.012Z,95.00
2019-04-14T18:28:35.106Z,95.50
2019-04-14T18:31:35.535Z,95.50
2019-04-14T18:34:43.921Z,96.30
2019-04-14T18:37:32.986Z,96.40
2019-04-14T18:40:27.353Z,96.60
2019-04-14T18:43:03.389Z,96.30
2019-04-14T18:45:48.977Z,97.20
2019-04-14T18:48:39.459Z,96.80
2019-04-14T18:51:41.873Z,97.40
2019-04-14T18:54:23.430Z,97.20
2019-04-14T18:56:59.482Z,96.70
2019-04-14T18:59:50.903Z,96.60
2019-04-14T19:02:22.387Z,96.60
2019-04-14T19:04:53.494Z,96.60
2019-04-14T19:07:24.912Z,97.00
2019-04-14T19:09:56.335Z,97.00
2019-04-14T19:12:37.114Z,98.10
2019-04-14T19:15:27.893Z,97.30
2019-04-14T19:18:07.538Z,97.60
2019-04-14T19:20:40.899Z,97.40
2019-04-14T19:23:12.005Z,97.40
2019-04-14T19:25:43.528Z,97.60
2019-04-14T19:28:15.303Z,97.30
2019-04-14T19:30:46.651Z,97.20
2019-04-14T19:33:18.903Z,97.20
2019-04-14T19:35:49.971Z,97.20
2019-04-14T19:38:21.005Z,97.50
2019-04-14T19:40:51.983Z,97.30
2019-04-14T19:43:24.139Z,97.60
2019-04-14T19:45:56.621Z,97.30
2019-04-14T19:48:29.470Z,97.70
2019-04-14T19:51:00.508Z,97.60
2019-04-14T19:53:31.666Z,97.70
2019-04-14T19:56:03.115Z,98.00
2019-04-14T19:58:34.218Z,98.30
2019-04-14T20:01:07.168Z,98.00
2019-04-14T20:03:38.882Z,97.90
2019-04-14T20:06:10.044Z,97.90
2019-04-14T20:08:41.130Z,97.90
2019-04-14T20:11:12.578Z,97.80
2019-04-14T20:13:47.396Z,98.10
2019-04-14T20:16:43.466Z,98.30
2019-04-14T20:19:33.429Z,97.90
2019-04-14T20:22:14.136Z,97.80
2019-04-14T20:25:07.582Z,97.90
2019-04-14T20:27:46.952Z,98.20
2019-04-14T20:30:52.243Z,98.20
2019-04-14T20:33:23.763Z,98.10
2019-04-14T20:35:54.744Z,97.90
2019-04-14T20:38:26.280Z,98.30
2019-04-14T20:40:57.443Z,98.40
2019-04-14T20:43:28.432Z,98.40
2019-04-14T20:45:59.913Z,98.50
2019-04-14T20:48:31.004Z,98.40
2019-04-14T20:51:02.031Z,98.70
2019-04-14T20:53:33.001Z,98.80
2019-04-14T20:56:04.078Z,99.10
2019-04-14T20:58:35.170Z,99.10
2019-04-14T21:01:07.809Z,99.30
2019-04-14T21:03:57.077Z,99.20
2019-04-14T21:06:38.839Z,99.20
2019-04-14T21:09:41.701Z,99.20
2019-04-14T21:12:21.718Z,99.40
2019-04-14T21:15:09.363Z,99.60
2019-04-14T21:17:59.179Z,99.80
2019-04-14T21:20:51.959Z,99.80
2019-04-14T21:23:32.062Z,99.90
2019-04-14T21:26:17.361Z,99.90
2019-04-14T21:28:53.261Z,99.90
2019-04-14T21:31:33.808Z,99.90
2019-04-14T21:34:32.918Z,99.90
2019-04-14T21:37:29.343Z,99.90
2019-04-14T21:40:19.427Z,99.90
2019-04-14T21:42:50.916Z,99.90
2019-04-14T21:45:22.091Z,99.90
2019-04-14T21:47:53.582Z,99.90
2019-04-14T21:50:24.727Z,99.90
2019-04-14T21:52:55.829Z,99.90
2019-04-14T21:55:26.974Z,99.90
2019-04-14T21:58:13.607Z,99.90
2019-04-14T22:01:48.126Z,99.90
2019-04-14T22:04:53.623Z,99.90
2019-04-14T22:07:59.204Z,99.90
2019-04-14T22:10:37.949Z,99.90
2019-04-14T22:13:09.361Z,99.90
2019-04-14T22:15:41.224Z,99.90
2019-04-14T22:18:12.438Z,99.90
2019-04-14T22:20:43.536Z,99.90
2019-04-14T22:23:14.663Z,99.90
2019-04-14T22:25:45.730Z,99.90
2019-04-14T22:28:16.834Z,99.90
2019-04-14T22:30:48.232Z,99.90
2019-04-14T22:33:19.218Z,99.90
2019-04-14T22:35:50.392Z,99.90
2019-04-14T22:38:21.836Z,99.90
2019-04-14T22:40:52.886Z,99.90
2019-04-14T22:43:24.029Z,99.90
2019-04-14T22:45:55.138Z,99.90
2019-04-14T22:48:26.246Z,99.90
2019-04-14T22:50:57.547Z,99.90
2019-04-14T22:53:28.595Z,99.90
2019-04-14T22:56:00.035Z,99.90
2019-04-14T22:58:31.473Z,99.90
2019-04-14T23:01:21.283Z,99.90
2019-04-14T23:04:14.024Z,99.90
2019-04-14T23:07:09.859Z,99.90
2019-04-14T23:09:52.545Z,99.90
2019-04-14T23:12:31.929Z,99.90
2019-04-14T23:15:20.863Z,99.90
2019-04-14T23:18:09.811Z,99.90
2019-04-14T23:21:00.191Z,99.90
2019-04-14T23:23:41.100Z,99.90
2019-04-14T23:26:12.131Z,99.90
2019-04-14T23:28:43.556Z,99.90
2019-04-14T23:31:14.610Z,99.90
2019-04-14T23:33:46.043Z,99.90
2019-04-14T23:36:17.158Z,99.90
2019-04-14T23:38:48.303Z,99.90
2019-04-14T23:41:20.162Z,99.90
2019-04-14T23:43:51.305Z,99.90
2019-04-14T23:46:22.758Z,99.90
2019-04-14T23:48:54.243Z,99.90
2019-04-14T23:51:26.345Z,99.90
2019-04-14T23:53:57.850Z,99.90
2019-04-14T23:56:29.340Z,99.90
2019-04-14T23:59:00.860Z,99.90
